Terminal Aerodrome Forecast
Issued by NWS

Home | Current Version | Previous Version | Graphics & Text | Print | Product List | Glossary On
Versions: 1 2 3 4 5 6 7 8 9 10 11 12 13 14 15 16 17 18 19 20 21 22 23 24 25 26 27 28 29 30 31 32 33 34
000
FTUS43 KABR 191155 CCA
TAFMBG
TAF COR
KMBG 191155Z 1912/2012 13011KT P6SM VCTS BKN080CB
      TEMPO 1912/1914 P6SM TSRA BKN050CB
     FM191500 15013KT P6SM SCT150
     FM192100 10010KT P6SM SCT150
     FM192300 05012KT P6SM SCT200=

USA.gov is the U.S. government's official web portal to all federal, state and local government web resources and services.